createdAt,value
2018-03-08T00:00:38.539Z,2.99
2018-03-08T00:01:38.478Z,3.03
2018-03-08T00:02:38.404Z,3.05
2018-03-08T00:03:38.347Z,2.96
2018-03-08T00:04:38.310Z,3.24
2018-03-08T00:05:38.274Z,3.54
2018-03-08T00:06:38.267Z,3.75
2018-03-08T00:07:38.206Z,4.27
2018-03-08T00:08:38.166Z,4.14
2018-03-08T00:09:38.121Z,3.98
2018-03-08T00:10:38.053Z,4.04
2018-03-08T00:11:38.039Z,3.88
2018-03-08T00:12:38.024Z,3.80
2018-03-08T00:13:37.922Z,3.62
2018-03-08T00:14:37.930Z,3.52
2018-03-08T00:15:37.869Z,3.50
2018-03-08T00:16:37.809Z,3.48
2018-03-08T00:17:37.786Z,3.75
2018-03-08T00:18:37.719Z,3.62
2018-03-08T00:19:37.695Z,3.42
2018-03-08T00:20:37.627Z,3.57
2018-03-08T00:21:37.590Z,3.80
2018-03-08T00:22:37.534Z,3.91
2018-03-08T00:23:37.509Z,4.16
2018-03-08T00:24:37.460Z,4.16
2018-03-08T00:25:37.490Z,4.11
2018-03-08T00:26:37.380Z,4.45
2018-03-08T00:27:37.368Z,4.63
2018-03-08T00:28:37.309Z,4.78
2018-03-08T00:29:37.264Z,4.91
2018-03-08T00:30:37.219Z,4.89
2018-03-08T00:31:37.174Z,4.88
2018-03-08T00:32:37.130Z,5.17
2018-03-08T00:33:37.089Z,5.13
2018-03-08T00:34:37.072Z,5.12
2018-03-08T00:35:37.039Z,5.09
2018-03-08T00:36:37.662Z,5.13
2018-03-08T00:37:37.012Z,5.17
2018-03-08T00:38:36.872Z,4.96
2018-03-08T00:39:36.833Z,5.04
2018-03-08T00:40:36.816Z,5.07
2018-03-08T00:41:36.763Z,4.97
2018-03-08T00:42:36.713Z,5.15
2018-03-08T00:43:36.679Z,4.94
2018-03-08T00:44:37.165Z,4.60
2018-03-08T00:45:36.581Z,4.65
2018-03-08T00:46:36.548Z,4.52
2018-03-08T00:47:36.525Z,4.15
2018-03-08T00:48:36.477Z,4.11
2018-03-08T00:49:36.396Z,3.80
2018-03-08T00:50:36.369Z,3.79
2018-03-08T00:51:36.341Z,3.61
2018-03-08T00:52:36.326Z,3.65
2018-03-08T00:53:36.268Z,3.97
2018-03-08T00:54:36.237Z,3.83
2018-03-08T00:55:36.171Z,3.57
2018-03-08T00:56:36.123Z,3.43
2018-03-08T00:57:36.101Z,3.45
2018-03-08T00:58:36.032Z,3.45
2018-03-08T00:59:36.023Z,3.28
2018-03-08T01:00:35.968Z,3.26
2018-03-08T01:01:35.935Z,3.23
2018-03-08T01:02:35.870Z,3.20
2018-03-08T01:03:35.858Z,3.17
2018-03-08T01:04:35.776Z,3.02
2018-03-08T01:05:35.759Z,3.05
2018-03-08T01:06:35.704Z,3.39
2018-03-08T01:07:35.682Z,3.58
2018-03-08T01:08:35.613Z,3.72
2018-03-08T01:09:35.580Z,3.52
2018-03-08T01:10:35.551Z,3.52
2018-03-08T01:11:35.494Z,3.61
2018-03-08T01:12:36.165Z,3.88
2018-03-08T01:13:35.506Z,4.60
2018-03-08T01:14:35.361Z,4.88
2018-03-08T01:15:35.326Z,4.65
2018-03-08T01:16:35.270Z,4.54
2018-03-08T01:17:35.237Z,4.41
2018-03-08T01:18:35.205Z,4.62
2018-03-08T01:19:35.165Z,4.63
2018-03-08T01:20:35.142Z,4.63
2018-03-08T01:21:35.086Z,4.85
2018-03-08T01:22:35.032Z,4.85
2018-03-08T01:23:34.979Z,4.85
2018-03-08T01:24:34.954Z,5.27
2018-03-08T01:25:34.931Z,5.35
2018-03-08T01:26:34.904Z,5.17
2018-03-08T01:27:34.816Z,4.96
2018-03-08T01:28:34.775Z,5.02
2018-03-08T01:29:34.723Z,5.18
2018-03-08T01:30:34.700Z,5.15
2018-03-08T01:31:34.667Z,5.22
2018-03-08T01:32:34.612Z,5.33
2018-03-08T01:33:34.601Z,5.07
2018-03-08T01:34:34.523Z,4.97
2018-03-08T01:35:34.488Z,4.86
2018-03-08T01:36:34.436Z,5.10
2018-03-08T01:37:34.411Z,5.22
2018-03-08T01:38:34.357Z,5.28
2018-03-08T01:39:34.336Z,5.40
2018-03-08T01:40:34.270Z,5.40
2018-03-08T01:41:34.232Z,5.45
2018-03-08T01:42:34.211Z,5.38
2018-03-08T01:43:34.150Z,5.42
2018-03-08T01:44:34.103Z,5.45
2018-03-08T01:45:34.093Z,5.43
2018-03-08T01:46:34.031Z,5.22
2018-03-08T01:47:33.993Z,5.07
2018-03-08T01:48:33.929Z,4.96
2018-03-08T01:49:33.909Z,4.77
2018-03-08T01:50:33.852Z,4.92
2018-03-08T01:51:33.815Z,4.97
2018-03-08T01:52:33.767Z,4.88
2018-03-08T01:53:33.723Z,5.10
2018-03-08T01:54:33.685Z,5.31
2018-03-08T01:55:33.648Z,5.38
2018-03-08T01:56:33.613Z,5.46
2018-03-08T01:57:33.565Z,5.40
2018-03-08T01:58:33.508Z,5.31
2018-03-08T01:59:33.475Z,4.97
2018-03-08T02:00:33.442Z,4.84
2018-03-08T02:01:33.403Z,4.69
2018-03-08T02:02:33.392Z,4.42
2018-03-08T02:03:33.317Z,4.63
2018-03-08T02:04:33.290Z,4.54
2018-03-08T02:05:33.227Z,4.58
2018-03-08T02:06:33.212Z,4.50
2018-03-08T02:07:33.144Z,4.52
2018-03-08T02:08:33.096Z,4.77
2018-03-08T02:09:33.059Z,4.62
2018-03-08T02:10:33.017Z,4.40
2018-03-08T02:11:33.007Z,4.33
2018-03-08T02:12:33.017Z,4.16
2018-03-08T02:13:32.905Z,4.42
2018-03-08T02:14:32.874Z,4.63
2018-03-08T02:15:32.820Z,4.72
2018-03-08T02:16:32.769Z,4.55
2018-03-08T02:17:32.731Z,4.37
2018-03-08T02:18:32.705Z,4.12
2018-03-08T02:19:32.668Z,3.78
2018-03-08T02:20:32.626Z,3.52
2018-03-08T02:21:32.551Z,3.36
2018-03-08T02:22:33.182Z,3.40
2018-03-08T02:23:32.483Z,3.45
2018-03-08T02:24:32.447Z,3.58
2018-03-08T02:25:32.413Z,3.76
2018-03-08T02:26:32.368Z,3.88
2018-03-08T02:27:32.309Z,3.76
2018-03-08T02:28:32.266Z,3.61
2018-03-08T02:29:32.230Z,3.91
2018-03-08T02:30:32.188Z,3.80
2018-03-08T02:31:32.151Z,3.88
2018-03-08T02:32:32.163Z,4.14
2018-03-08T02:33:32.062Z,4.30
2018-03-08T02:34:32.042Z,4.40
2018-03-08T02:35:31.971Z,4.44
2018-03-08T02:36:31.993Z,4.22
2018-03-08T02:37:31.930Z,4.00
2018-03-08T02:38:31.855Z,4.37
2018-03-08T02:39:31.831Z,4.44
2018-03-08T02:40:31.775Z,4.41
2018-03-08T02:41:31.745Z,4.22
2018-03-08T02:42:31.685Z,3.96
2018-03-08T02:43:31.663Z,4.33
2018-03-08T02:44:31.630Z,4.60
2018-03-08T02:45:31.547Z,4.42
2018-03-08T02:46:31.522Z,4.41
2018-03-08T02:47:31.497Z,4.41
2018-03-08T02:48:31.450Z,4.78
2018-03-08T02:49:31.435Z,4.89
2018-03-08T02:50:31.373Z,4.96
2018-03-08T02:51:31.311Z,5.03
2018-03-08T02:52:31.281Z,5.31
2018-03-08T02:53:31.227Z,5.24
2018-03-08T02:54:31.185Z,5.31
2018-03-08T02:55:31.144Z,5.33
2018-03-08T02:56:31.125Z,5.20
2018-03-08T02:57:31.119Z,5.24
2018-03-08T02:58:31.037Z,5.18
2018-03-08T02:59:31.005Z,5.24
2018-03-08T03:00:30.938Z,5.18
2018-03-08T03:01:30.895Z,4.96
2018-03-08T03:02:30.864Z,5.10
2018-03-08T03:03:30.830Z,4.85
2018-03-08T03:04:30.804Z,4.70
2018-03-08T03:05:30.752Z,4.59
2018-03-08T03:06:30.677Z,4.51
2018-03-08T03:07:30.660Z,4.85
2018-03-08T03:08:30.622Z,4.88
2018-03-08T03:09:30.569Z,4.86
2018-03-08T03:10:30.521Z,4.86
2018-03-08T03:11:30.481Z,4.97
2018-03-08T03:12:30.445Z,4.99
2018-03-08T03:13:30.401Z,5.06
2018-03-08T03:14:30.403Z,5.10
2018-03-08T03:15:31.212Z,4.75
2018-03-08T03:16:30.264Z,4.69
2018-03-08T03:17:30.227Z,4.97
2018-03-08T03:18:30.198Z,4.75
2018-03-08T03:19:30.165Z,4.73
2018-03-08T03:20:30.136Z,4.59
2018-03-08T03:21:30.100Z,4.50
2018-03-08T03:22:30.032Z,4.37
2018-03-08T03:23:29.995Z,4.67
2018-03-08T03:24:29.948Z,4.72
2018-03-08T03:25:29.899Z,4.55
2018-03-08T03:26:29.847Z,4.65
2018-03-08T03:27:29.864Z,4.88
2018-03-08T03:28:29.786Z,4.94
2018-03-08T03:29:29.728Z,4.82
2018-03-08T03:30:29.706Z,4.89
2018-03-08T03:31:29.653Z,4.73
2018-03-08T03:32:29.626Z,4.92
2018-03-08T03:33:29.563Z,4.82
2018-03-08T03:34:29.559Z,4.60
2018-03-08T03:35:29.581Z,4.52
2018-03-08T03:36:29.441Z,4.51
2018-03-08T03:37:29.415Z,4.55
2018-03-08T03:38:29.402Z,4.41
2018-03-08T03:39:29.311Z,4.36
2018-03-08T03:40:29.285Z,4.45
2018-03-08T03:41:29.236Z,4.50
2018-03-08T03:42:29.196Z,4.65
2018-03-08T03:43:29.146Z,4.55
2018-03-08T03:44:29.133Z,4.63
2018-03-08T03:45:29.107Z,4.45
2018-03-08T03:46:29.693Z,4.40
2018-03-08T03:47:28.989Z,4.36
2018-03-08T03:48:28.971Z,4.26
2018-03-08T03:49:28.948Z,4.34
2018-03-08T03:50:28.916Z,4.11
2018-03-08T03:51:28.833Z,4.44
2018-03-08T03:52:28.820Z,4.60
2018-03-08T03:53:28.741Z,4.59
2018-03-08T03:54:28.717Z,4.54
2018-03-08T03:55:28.638Z,4.55
2018-03-08T03:56:28.604Z,4.32
2018-03-08T03:57:28.566Z,4.58
2018-03-08T03:58:28.527Z,4.62
2018-03-08T03:59:28.514Z,4.66
2018-03-08T04:00:28.451Z,4.40
2018-03-08T04:01:28.411Z,4.40
2018-03-08T04:02:28.381Z,4.42
2018-03-08T04:03:28.321Z,4.55
2018-03-08T04:04:28.333Z,4.86
2018-03-08T04:05:28.231Z,4.86
2018-03-08T04:06:28.196Z,4.69
2018-03-08T04:07:28.162Z,4.55
2018-03-08T04:08:28.111Z,4.33
2018-03-08T04:09:28.086Z,4.47
2018-03-08T04:10:28.039Z,4.34
2018-03-08T04:11:27.996Z,4.30
2018-03-08T04:12:27.944Z,4.54
2018-03-08T04:13:27.904Z,4.54
2018-03-08T04:14:27.855Z,4.85
2018-03-08T04:15:27.829Z,4.97
2018-03-08T04:16:27.777Z,5.09
2018-03-08T04:17:27.757Z,5.07
2018-03-08T04:18:27.699Z,5.22
2018-03-08T04:19:27.666Z,5.18
2018-03-08T04:20:27.652Z,5.20
2018-03-08T04:21:27.573Z,4.96
2018-03-08T04:22:27.549Z,4.82
2018-03-08T04:23:27.495Z,4.65
2018-03-08T04:24:27.451Z,4.58
2018-03-08T04:25:27.402Z,4.54
2018-03-08T04:26:27.390Z,4.50
2018-03-08T04:27:27.321Z,4.63
2018-03-08T04:28:27.277Z,4.59
2018-03-08T04:29:27.232Z,4.70
2018-03-08T04:30:27.203Z,4.65
2018-03-08T04:31:27.149Z,4.72
2018-03-08T04:32:27.132Z,4.91
2018-03-08T04:33:27.066Z,5.00
2018-03-08T04:34:27.039Z,5.09
2018-03-08T04:35:27.010Z,5.06
2018-03-08T04:36:26.977Z,4.96
2018-03-08T04:37:27.017Z,4.66
2018-03-08T04:38:26.866Z,4.45
2018-03-08T04:39:26.820Z,4.50
2018-03-08T04:40:26.778Z,4.65
2018-03-08T04:41:26.743Z,4.41
2018-03-08T04:42:26.694Z,4.44
2018-03-08T04:43:26.654Z,4.41
2018-03-08T04:44:26.620Z,4.36
2018-03-08T04:45:26.609Z,4.08
2018-03-08T04:46:26.523Z,4.02
2018-03-08T04:47:26.502Z,4.12
2018-03-08T04:48:26.461Z,4.30
2018-03-08T04:49:26.419Z,4.29
2018-03-08T04:50:26.391Z,4.40
2018-03-08T04:51:26.342Z,4.48
2018-03-08T04:52:26.288Z,4.62
2018-03-08T04:53:26.247Z,4.52
2018-03-08T04:54:26.202Z,4.73
2018-03-08T04:55:26.173Z,4.73
2018-03-08T04:56:26.146Z,4.69
2018-03-08T04:57:26.109Z,4.75
2018-03-08T04:58:26.054Z,4.69
2018-03-08T04:59:26.073Z,4.69
2018-03-08T05:00:25.946Z,4.78
2018-03-08T05:01:25.907Z,4.69
2018-03-08T05:02:25.870Z,4.70
2018-03-08T05:03:25.829Z,4.78
2018-03-08T05:04:25.826Z,4.70
2018-03-08T05:05:25.746Z,4.67
2018-03-08T05:06:25.743Z,4.73
2018-03-08T05:07:25.669Z,4.77
2018-03-08T05:08:25.612Z,4.99
2018-03-08T05:09:25.571Z,4.96
2018-03-08T05:10:25.524Z,5.02
2018-03-08T05:11:25.477Z,4.88
2018-03-08T05:12:25.431Z,4.73
2018-03-08T05:13:25.430Z,4.65
2018-03-08T05:14:25.366Z,4.70
2018-03-08T05:15:25.321Z,4.72
2018-03-08T05:16:25.331Z,4.89
2018-03-08T05:17:25.243Z,4.97
2018-03-08T05:18:25.272Z,5.04
2018-03-08T05:19:25.193Z,5.17
2018-03-08T05:20:25.160Z,5.21
2018-03-08T05:21:25.098Z,5.10
2018-03-08T05:22:25.058Z,5.24
2018-03-08T05:23:24.975Z,5.04
2018-03-08T05:24:24.940Z,5.04
2018-03-08T05:25:24.931Z,4.85
2018-03-08T05:26:24.878Z,4.97
2018-03-08T05:27:24.808Z,5.18
2018-03-08T05:28:24.779Z,4.86
2018-03-08T05:29:24.777Z,4.94
2018-03-08T05:30:24.718Z,4.92
2018-03-08T05:31:24.657Z,4.73
2018-03-08T05:32:24.625Z,4.70
2018-03-08T05:33:24.569Z,4.72
2018-03-08T05:34:24.527Z,4.86
2018-03-08T05:35:24.510Z,4.82
2018-03-08T05:36:24.468Z,4.52
2018-03-08T05:37:24.507Z,4.63
2018-03-08T05:38:24.369Z,4.59
2018-03-08T05:39:24.362Z,4.70
2018-03-08T05:40:24.275Z,4.75
2018-03-08T05:41:24.291Z,4.65
2018-03-08T05:42:24.219Z,4.84
2018-03-08T05:43:24.151Z,4.94
2018-03-08T05:44:24.119Z,4.82
2018-03-08T05:45:24.057Z,4.88
2018-03-08T05:46:24.039Z,4.97
2018-03-08T05:47:24.022Z,4.99
2018-03-08T05:48:23.987Z,4.97
2018-03-08T05:49:23.916Z,5.09
2018-03-08T05:50:23.893Z,5.04
2018-03-08T05:51:23.847Z,5.00
2018-03-08T05:52:23.817Z,4.97
2018-03-08T05:53:23.770Z,4.84
2018-03-08T05:54:23.762Z,4.86
2018-03-08T05:55:23.659Z,4.86
2018-03-08T05:56:23.610Z,4.70
2018-03-08T05:57:23.650Z,4.62
2018-03-08T05:58:23.536Z,4.66
2018-03-08T05:59:23.510Z,4.63
2018-03-08T06:00:23.438Z,4.60
2018-03-08T06:01:23.404Z,4.75
2018-03-08T06:02:23.388Z,4.70
2018-03-08T06:03:23.328Z,4.73
2018-03-08T06:04:23.276Z,4.80
2018-03-08T06:05:23.251Z,4.92
2018-03-08T06:06:23.189Z,4.96
2018-03-08T06:07:23.149Z,5.07
2018-03-08T06:08:23.126Z,4.86
2018-03-08T06:09:23.101Z,4.89
2018-03-08T06:10:23.052Z,4.96
2018-03-08T06:11:22.999Z,5.12
2018-03-08T06:12:22.958Z,5.17
2018-03-08T06:13:22.927Z,5.09
2018-03-08T06:14:22.877Z,5.13
2018-03-08T06:15:22.822Z,5.15
2018-03-08T06:16:22.766Z,4.94
2018-03-08T06:17:22.772Z,4.73
2018-03-08T06:18:22.686Z,4.54
2018-03-08T06:19:22.662Z,4.55
2018-03-08T06:20:22.642Z,4.27
2018-03-08T06:21:22.574Z,4.26
2018-03-08T06:22:22.517Z,4.59
2018-03-08T06:23:22.507Z,4.69
2018-03-08T06:24:22.440Z,4.73
2018-03-08T06:25:22.406Z,4.67
2018-03-08T06:26:22.400Z,4.66
2018-03-08T06:27:22.306Z,4.73
2018-03-08T06:28:22.302Z,4.84
2018-03-08T06:29:22.234Z,4.91
2018-03-08T06:30:22.215Z,5.06
2018-03-08T06:31:22.185Z,4.91
2018-03-08T06:32:22.109Z,4.70
2018-03-08T06:33:22.085Z,4.84
2018-03-08T06:34:22.030Z,4.91
2018-03-08T06:35:21.999Z,4.88
2018-03-08T06:36:21.935Z,4.69
2018-03-08T06:37:21.910Z,4.78
2018-03-08T06:38:21.873Z,4.91
2018-03-08T06:39:21.816Z,4.72
2018-03-08T06:40:21.808Z,4.63
2018-03-08T06:41:21.752Z,4.40
2018-03-08T06:42:21.707Z,4.41
2018-03-08T06:43:21.692Z,4.66
2018-03-08T06:44:21.640Z,4.62
2018-03-08T06:45:21.608Z,4.60
2018-03-08T06:46:21.541Z,4.73
2018-03-08T06:47:21.488Z,4.82
2018-03-08T06:48:21.448Z,4.78
2018-03-08T06:49:21.426Z,4.91
2018-03-08T06:50:21.376Z,4.97
2018-03-08T06:51:21.326Z,4.96
2018-03-08T06:52:21.277Z,5.17
2018-03-08T06:53:21.233Z,5.15
2018-03-08T06:54:21.199Z,5.15
2018-03-08T06:55:21.261Z,5.22
2018-03-08T06:56:21.116Z,5.22
2018-03-08T06:57:21.070Z,5.10
2018-03-08T06:58:21.022Z,5.33
2018-03-08T06:59:20.981Z,5.30
2018-03-08T07:00:20.946Z,5.40
2018-03-08T07:01:20.897Z,5.31
2018-03-08T07:02:20.890Z,5.54
2018-03-08T07:03:20.830Z,5.56
2018-03-08T07:04:20.794Z,5.48
2018-03-08T07:05:20.754Z,5.36
2018-03-08T07:06:20.716Z,5.28
2018-03-08T07:07:20.676Z,5.18
2018-03-08T07:08:20.695Z,5.35
2018-03-08T07:09:20.568Z,5.57
2018-03-08T07:10:20.558Z,5.78
2018-03-08T07:11:20.495Z,5.78
2018-03-08T07:12:20.458Z,5.91
2018-03-08T07:13:20.414Z,5.86
2018-03-08T07:14:20.407Z,5.81
2018-03-08T07:15:20.337Z,5.89
2018-03-08T07:16:20.295Z,6.21
2018-03-08T07:17:20.274Z,6.04
2018-03-08T07:18:20.236Z,6.49
2018-03-08T07:19:20.177Z,6.94
2018-03-08T07:20:20.184Z,6.33
2018-03-08T07:21:20.087Z,7.53
2018-03-08T07:22:20.067Z,8.12
2018-03-08T07:23:20.021Z,8.61
2018-03-08T07:24:19.971Z,8.28
2018-03-08T07:25:19.942Z,8.70
2018-03-08T07:26:19.894Z,8.94
2018-03-08T07:27:19.867Z,8.15
2018-03-08T07:28:19.827Z,8.74
2018-03-08T07:29:19.798Z,8.96
2018-03-08T07:30:19.736Z,9.14
2018-03-08T07:31:19.735Z,8.38
2018-03-08T07:32:19.691Z,9.28
2018-03-08T07:33:19.652Z,9.76
2018-03-08T07:34:19.610Z,10.42
2018-03-08T07:35:19.569Z,10.12
2018-03-08T07:36:19.539Z,9.93
2018-03-08T07:37:19.498Z,9.68
2018-03-08T07:38:19.458Z,9.99
2018-03-08T07:39:19.449Z,10.51
2018-03-08T07:40:19.392Z,9.14
2018-03-08T07:41:19.359Z,9.05
2018-03-08T07:42:19.318Z,8.86
2018-03-08T07:43:19.288Z,8.41
2018-03-08T07:44:19.305Z,9.17
2018-03-08T07:45:19.236Z,10.08
2018-03-08T07:46:19.199Z,10.26
2018-03-08T07:47:19.211Z,10.20
2018-03-08T07:48:19.140Z,9.21
2018-03-08T07:49:19.125Z,10.08
2018-03-08T07:50:19.112Z,9.57
2018-03-08T07:51:19.046Z,9.89
2018-03-08T07:52:19.022Z,9.60
2018-03-08T07:53:18.985Z,9.69
2018-03-08T07:54:18.961Z,11.07
2018-03-08T07:55:18.941Z,9.87
2018-03-08T07:56:18.895Z,9.47
2018-03-08T07:57:18.933Z,8.15
2018-03-08T07:58:18.836Z,8.95
2018-03-08T07:59:18.803Z,8.05
2018-03-08T08:00:18.832Z,8.04
2018-03-08T08:01:18.740Z,8.18
2018-03-08T08:02:18.715Z,8.45
2018-03-08T08:03:18.685Z,8.86
2018-03-08T08:04:18.754Z,8.76
2018-03-08T08:05:18.608Z,8.95
2018-03-08T08:06:18.594Z,8.05
2018-03-08T08:07:18.548Z,7.72
2018-03-08T08:08:18.520Z,9.20
2018-03-08T08:09:18.482Z,9.68
2018-03-08T08:10:18.456Z,10.08
2018-03-08T08:11:18.445Z,10.63
2018-03-08T08:12:18.404Z,11.72
2018-03-08T08:13:18.379Z,11.44
2018-03-08T08:14:18.340Z,10.18
2018-03-08T08:15:18.296Z,8.47
2018-03-08T08:16:18.261Z,9.54
2018-03-08T08:17:18.247Z,8.65
2018-03-08T08:18:18.229Z,8.56
2018-03-08T08:19:18.199Z,8.44
2018-03-08T08:20:18.149Z,8.38
2018-03-08T08:21:18.126Z,7.93
2018-03-08T08:22:18.082Z,7.60
2018-03-08T08:23:18.064Z,7.53
2018-03-08T08:24:18.032Z,7.52
2018-03-08T08:25:18.034Z,7.32
2018-03-08T08:26:17.946Z,7.24
2018-03-08T08:27:17.929Z,7.21
2018-03-08T08:28:17.886Z,7.23
2018-03-08T08:29:17.867Z,7.28
2018-03-08T08:30:17.817Z,7.07
2018-03-08T08:31:17.808Z,7.39
2018-03-08T08:32:17.769Z,7.31
2018-03-08T08:33:17.740Z,7.21
2018-03-08T08:34:17.676Z,7.34
2018-03-08T08:35:17.661Z,7.09
2018-03-08T08:36:17.625Z,6.91
2018-03-08T08:37:17.578Z,7.05
2018-03-08T08:38:17.548Z,7.25
2018-03-08T08:39:17.519Z,6.98
2018-03-08T08:40:17.491Z,7.31
2018-03-08T08:41:17.583Z,7.40
2018-03-08T08:42:17.410Z,7.05
2018-03-08T08:43:17.370Z,7.10
2018-03-08T08:44:17.355Z,7.37
2018-03-08T08:45:17.338Z,7.57
2018-03-08T08:46:17.288Z,8.16
2018-03-08T08:47:17.274Z,8.83
2018-03-08T08:48:17.200Z,8.79
2018-03-08T08:49:17.328Z,8.04
2018-03-08T08:50:17.114Z,8.25
2018-03-08T08:51:17.106Z,7.87
2018-03-08T08:52:17.109Z,8.56
2018-03-08T08:53:17.011Z,8.53
2018-03-08T08:54:17.030Z,8.28
2018-03-08T08:55:16.980Z,8.16
2018-03-08T08:56:16.938Z,7.92
2018-03-08T08:57:16.885Z,7.74
2018-03-08T08:58:16.854Z,7.40
2018-03-08T08:59:16.804Z,7.30
2018-03-08T09:00:16.805Z,7.17
2018-03-08T09:01:16.766Z,7.07
2018-03-08T09:02:16.692Z,7.09
2018-03-08T09:03:16.694Z,7.35
2018-03-08T09:04:16.638Z,7.80
2018-03-08T09:05:16.593Z,8.23
2018-03-08T09:06:16.555Z,8.05
2018-03-08T09:07:16.512Z,7.92
2018-03-08T09:08:16.504Z,8.01
2018-03-08T09:09:16.443Z,8.19
2018-03-08T09:10:16.427Z,7.97
2018-03-08T09:11:16.412Z,7.74
2018-03-08T09:12:16.351Z,7.89
2018-03-08T09:13:16.302Z,7.75
2018-03-08T09:14:16.286Z,8.15
2018-03-08T09:15:16.264Z,8.94
2018-03-08T09:16:16.201Z,8.86
2018-03-08T09:17:16.169Z,7.95
2018-03-08T09:18:16.118Z,8.02
2018-03-08T09:19:16.086Z,8.30
2018-03-08T09:20:16.023Z,8.83
2018-03-08T09:21:15.998Z,9.13
2018-03-08T09:22:15.972Z,9.36
2018-03-08T09:23:15.936Z,9.99
2018-03-08T09:24:15.885Z,11.22
2018-03-08T09:25:15.862Z,12.65
2018-03-08T09:26:15.814Z,12.38
2018-03-08T09:27:15.796Z,10.61
2018-03-08T09:28:15.765Z,9.48
2018-03-08T09:29:15.721Z,9.96
2018-03-08T09:30:15.680Z,10.91
2018-03-08T09:31:15.678Z,9.83
2018-03-08T09:32:15.619Z,9.97
2018-03-08T09:33:15.602Z,11.07
2018-03-08T09:34:15.554Z,12.31
2018-03-08T09:35:15.524Z,13.29
2018-03-08T09:36:15.503Z,13.14
2018-03-08T09:37:15.479Z,13.10
2018-03-08T09:38:15.459Z,12.45
2018-03-08T09:39:15.434Z,13.54
2018-03-08T09:40:15.408Z,14.35
2018-03-08T09:41:15.361Z,13.99
2018-03-08T09:42:15.363Z,12.47
2018-03-08T09:43:15.321Z,11.78
2018-03-08T09:44:15.294Z,13.19
2018-03-08T09:45:15.266Z,11.73
2018-03-08T09:46:15.213Z,9.23
2018-03-08T09:47:15.191Z,9.51
2018-03-08T09:48:15.174Z,10.52
2018-03-08T09:49:15.140Z,9.91
2018-03-08T09:50:15.127Z,9.69
2018-03-08T09:51:15.113Z,10.99
2018-03-08T09:52:15.051Z,12.19
2018-03-08T09:53:15.049Z,10.32
2018-03-08T09:54:15.074Z,11.03
2018-03-08T09:55:14.993Z,9.66
2018-03-08T09:56:14.949Z,9.75
2018-03-08T09:57:14.934Z,9.14
2018-03-08T09:58:14.917Z,9.29
2018-03-08T09:59:14.871Z,8.94
2018-03-08T10:00:14.844Z,10.78
2018-03-08T10:01:14.801Z,13.03
2018-03-08T10:02:14.788Z,12.74
2018-03-08T10:03:14.762Z,12.05
2018-03-08T10:04:14.724Z,10.71
2018-03-08T10:05:14.690Z,9.24
2018-03-08T10:06:14.667Z,10.71
2018-03-08T10:07:14.641Z,13.19
2018-03-08T10:08:14.602Z,11.37
2018-03-08T10:09:14.570Z,13.19
2018-03-08T10:10:14.568Z,11.88
2018-03-08T10:11:14.540Z,13.01
2018-03-08T10:12:14.523Z,12.41
2018-03-08T10:13:14.493Z,10.76
2018-03-08T10:14:14.440Z,9.96
2018-03-08T10:15:14.427Z,9.96
2018-03-08T10:16:14.379Z,11.51
2018-03-08T10:17:14.367Z,13.04
2018-03-08T10:18:14.334Z,12.02
2018-03-08T10:19:14.328Z,10.68
2018-03-08T10:20:14.266Z,10.59
2018-03-08T10:21:14.250Z,10.02
2018-03-08T10:22:14.210Z,9.71
2018-03-08T10:23:14.200Z,9.32
2018-03-08T10:24:14.182Z,9.38
2018-03-08T10:25:14.131Z,9.21
2018-03-08T10:26:14.135Z,8.95
2018-03-08T10:27:14.079Z,9.50
2018-03-08T10:28:14.072Z,8.99
2018-03-08T10:29:14.008Z,9.13
2018-03-08T10:30:14.004Z,9.14
2018-03-08T10:31:13.948Z,9.32
2018-03-08T10:32:13.956Z,9.26
2018-03-08T10:33:13.898Z,9.57
2018-03-08T10:34:13.871Z,9.32
2018-03-08T10:35:13.844Z,9.08
2018-03-08T10:36:13.798Z,8.41
2018-03-08T10:37:13.771Z,8.41
2018-03-08T10:38:13.756Z,8.86
2018-03-08T10:40:13.737Z,10.15
2018-03-08T10:41:13.678Z,9.66
2018-03-08T10:42:13.629Z,9.18
2018-03-08T10:43:13.568Z,9.66
2018-03-08T10:44:13.527Z,10.30
2018-03-08T10:45:13.514Z,11.10
2018-03-08T10:46:13.470Z,10.73
2018-03-08T10:47:13.429Z,9.69
2018-03-08T10:48:13.436Z,8.66
2018-03-08T10:49:13.355Z,8.01
2018-03-08T10:50:13.371Z,7.87
2018-03-08T10:51:13.300Z,7.69
2018-03-08T10:52:13.274Z,8.02
2018-03-08T10:53:13.255Z,8.01
2018-03-08T10:54:13.261Z,7.95
2018-03-08T10:55:13.199Z,7.68
2018-03-08T10:56:13.162Z,8.19
2018-03-08T10:57:13.116Z,8.25
2018-03-08T10:58:13.073Z,8.18
2018-03-08T10:59:13.085Z,8.15
2018-03-08T11:00:13.033Z,8.05
2018-03-08T11:01:13.004Z,7.97
2018-03-08T11:02:12.942Z,7.90
2018-03-08T11:03:12.900Z,8.36
2018-03-08T11:04:12.871Z,9.39
2018-03-08T11:05:12.837Z,8.45
2018-03-08T11:06:12.809Z,9.26
2018-03-08T11:07:12.765Z,10.79
2018-03-08T11:08:12.721Z,11.47
2018-03-08T11:09:12.695Z,11.21
2018-03-08T11:10:12.691Z,11.35
2018-03-08T11:11:12.640Z,11.25
2018-03-08T11:12:12.601Z,10.97
2018-03-08T11:13:12.577Z,12.27
2018-03-08T11:14:12.537Z,12.09
2018-03-08T11:15:12.515Z,13.01
2018-03-08T11:16:12.512Z,11.42
2018-03-08T11:17:12.494Z,11.58
2018-03-08T11:18:12.437Z,11.90
2018-03-08T11:19:12.398Z,12.89
2018-03-08T11:20:12.350Z,12.96
2018-03-08T11:21:12.312Z,13.14
2018-03-08T11:22:12.302Z,12.31
2018-03-08T11:23:12.244Z,12.62
2018-03-08T11:24:12.236Z,12.62
2018-03-08T11:25:12.192Z,12.67
2018-03-08T11:26:12.163Z,11.88
2018-03-08T11:27:12.167Z,12.49
2018-03-08T11:28:12.110Z,11.70
2018-03-08T11:29:12.085Z,11.76
2018-03-08T11:30:12.069Z,12.49
2018-03-08T11:31:12.022Z,11.95
2018-03-08T11:32:12.020Z,12.65
2018-03-08T11:33:11.977Z,12.45
2018-03-08T11:34:11.935Z,11.67
2018-03-08T11:35:11.928Z,10.89
2018-03-08T11:36:11.897Z,9.87
2018-03-08T11:37:11.872Z,9.58
2018-03-08T11:38:11.845Z,9.64
2018-03-08T11:39:11.819Z,9.68
2018-03-08T11:40:11.828Z,9.47
2018-03-08T11:41:11.790Z,9.71
2018-03-08T11:42:11.726Z,10.01
2018-03-08T11:43:11.696Z,9.69
2018-03-08T11:44:11.682Z,9.38
2018-03-08T11:45:11.653Z,9.38
2018-03-08T11:46:11.648Z,11.25
2018-03-08T11:47:11.591Z,10.47
2018-03-08T11:48:11.558Z,10.36
2018-03-08T11:49:11.548Z,10.55
2018-03-08T11:50:11.537Z,11.09
2018-03-08T11:51:11.489Z,11.15
2018-03-08T11:52:11.440Z,12.24
2018-03-08T11:53:11.413Z,11.75
2018-03-08T11:54:11.365Z,10.88
2018-03-08T11:55:11.363Z,10.47
2018-03-08T11:56:11.357Z,10.70
2018-03-08T11:57:11.322Z,11.85
2018-03-08T11:58:11.256Z,12.34
2018-03-08T11:59:11.268Z,12.96
2018-03-08T12:00:11.248Z,13.29
2018-03-08T12:01:11.187Z,12.21
2018-03-08T12:02:11.139Z,12.85
2018-03-08T12:03:11.099Z,13.26
2018-03-08T12:04:11.091Z,12.79
2018-03-08T12:05:11.051Z,11.02
2018-03-08T12:06:11.853Z,10.92
2018-03-08T12:07:10.995Z,10.44
2018-03-08T12:08:10.994Z,10.88
2018-03-08T12:09:10.915Z,10.71
2018-03-08T12:10:10.911Z,11.17
2018-03-08T12:11:10.876Z,10.48
2018-03-08T12:12:10.839Z,10.09
2018-03-08T12:13:10.863Z,9.69
2018-03-08T12:14:10.779Z,9.68
2018-03-08T12:15:10.777Z,9.57
2018-03-08T12:16:10.801Z,9.68
2018-03-08T12:17:11.377Z,10.32
2018-03-08T12:18:10.721Z,10.08
2018-03-08T12:19:10.687Z,10.44
2018-03-08T12:20:10.602Z,10.34
2018-03-08T12:21:10.600Z,10.47
2018-03-08T12:22:10.569Z,10.44
2018-03-08T12:23:10.674Z,10.79
2018-03-08T12:24:10.478Z,10.34
2018-03-08T12:25:10.461Z,9.93
2018-03-08T12:26:10.437Z,9.86
2018-03-08T12:27:10.402Z,9.78
2018-03-08T12:28:10.387Z,10.02
2018-03-08T12:29:10.365Z,9.71
2018-03-08T12:30:10.331Z,9.60
2018-03-08T12:31:10.275Z,9.87
2018-03-08T12:32:10.252Z,9.86
2018-03-08T12:33:10.196Z,9.43
2018-03-08T12:34:10.204Z,9.26
2018-03-08T12:35:10.132Z,9.28
2018-03-08T12:36:10.123Z,9.31
2018-03-08T12:37:10.064Z,9.31
2018-03-08T12:38:10.032Z,9.39
2018-03-08T12:39:10.000Z,9.14
2018-03-08T12:40:10.001Z,8.96
2018-03-08T12:41:09.973Z,9.18
2018-03-08T12:42:09.905Z,8.89
2018-03-08T12:43:09.866Z,8.96
2018-03-08T12:44:09.870Z,8.94
2018-03-08T12:45:09.786Z,8.94
2018-03-08T12:46:09.771Z,9.11
2018-03-08T12:47:09.750Z,9.21
2018-03-08T12:48:09.708Z,9.11
2018-03-08T12:49:09.658Z,8.66
2018-03-08T12:50:09.622Z,8.73
2018-03-08T12:51:09.601Z,8.80
2018-03-08T12:52:09.561Z,8.65
2018-03-08T12:53:09.531Z,8.70
2018-03-08T12:54:09.507Z,8.79
2018-03-08T12:55:09.477Z,8.63
2018-03-08T12:56:09.444Z,8.71
2018-03-08T12:57:09.387Z,8.73
2018-03-08T12:58:09.356Z,8.95
2018-03-08T12:59:09.334Z,8.95
2018-03-08T13:00:09.326Z,8.83
2018-03-08T13:01:09.263Z,8.87
2018-03-08T13:02:09.218Z,8.94
2018-03-08T13:03:09.187Z,8.63
2018-03-08T13:04:09.127Z,8.98
2018-03-08T13:05:09.118Z,9.36
2018-03-08T13:06:09.053Z,10.18
2018-03-08T13:07:09.017Z,11.24
2018-03-08T13:08:09.009Z,11.61
2018-03-08T13:09:08.981Z,11.42
2018-03-08T13:10:11.444Z,10.47
2018-03-08T13:11:08.881Z,9.97
2018-03-08T13:12:10.468Z,9.96
2018-03-08T13:13:08.817Z,10.15
2018-03-08T13:14:08.777Z,9.71
2018-03-08T13:15:08.765Z,9.48